KNE082 OEAB-OERK
Flight info
| Callsign | KNE082 |
|---|---|
| Flight time | 1h 16m |
| Altitude | 37000 |
| Route | DUMSI H75 IRBAB Q313 UMRAN H76 MOBAG |
| Aircraft | A320/M-SDE3FGHIRWY/LB1 |
Departure
| Time | 2026-05-05 12:20 |
|---|---|
| Airport | Abha International Airport (OEAB) |
Arrival
| Time | 2026-05-05 13:37 |
|---|---|
| Airport | King Khalid International Airport (OERK) |
| Time | Latitude | Longitude | Altitude | Speed | Heading |
|---|---|---|---|---|---|
| 2026-05-05 12:04 | 18.23499 | 42.65867 | 6884 ft | 0 kts | 219° |
| 2026-05-05 12:12 | 18.23505 | 42.65872 | 6884 ft | 4 kts | 218° |
| 2026-05-05 12:12 | 18.23527 | 42.65890 | 6884 ft | 4 kts | 217° |
| 2026-05-05 12:13 | 18.23549 | 42.65906 | 6884 ft | 4 kts | 210° |
| 2026-05-05 12:13 | 18.23571 | 42.65916 | 6884 ft | 4 kts | 167° |
| 2026-05-05 12:13 | 18.23580 | 42.65926 | 6884 ft | 4 kts | 68° |
| 2026-05-05 12:13 | 18.23581 | 42.65926 | 6884 ft | 1 kts | 51° |
| 2026-05-05 12:14 | 18.23580 | 42.65926 | 6884 ft | 0 kts | 51° |
| 2026-05-05 12:15 | 18.23581 | 42.65928 | 6884 ft | 2 kts | 57° |
| 2026-05-05 12:16 | 18.23552 | 42.65954 | 6884 ft | 12 kts | 149° |
| 2026-05-05 12:16 | 18.23470 | 42.66055 | 6883 ft | 23 kts | 128° |
| 2026-05-05 12:16 | 18.23363 | 42.66195 | 6883 ft | 26 kts | 129° |
| 2026-05-05 12:16 | 18.23240 | 42.66353 | 6883 ft | 29 kts | 130° |
| 2026-05-05 12:17 | 18.23102 | 42.66526 | 6883 ft | 32 kts | 130° |
| 2026-05-05 12:17 | 18.23017 | 42.66714 | 6884 ft | 21 kts | 85° |
| 2026-05-05 12:17 | 18.23027 | 42.66790 | 6883 ft | 0 kts | 74° |
| 2026-05-05 12:18 | 18.23031 | 42.66801 | 6883 ft | 4 kts | 71° |
| 2026-05-05 12:18 | 18.23064 | 42.66838 | 6883 ft | 10 kts | 35° |
| 2026-05-05 12:19 | 18.23121 | 42.66847 | 6883 ft | 9 kts | 320° |
| 2026-05-05 12:19 | 18.23166 | 42.66786 | 6882 ft | 13 kts | 309° |
| 2026-05-05 12:19 | 18.23303 | 42.66609 | 6881 ft | 64 kts | 309° |
| 2026-05-05 12:19 | 18.23722 | 42.66068 | 6883 ft | 125 kts | 309° |
| 2026-05-05 12:20 | 18.24387 | 42.65206 | 6889 ft | 175 kts | 309° |
| 2026-05-05 12:20 | 18.25168 | 42.64192 | 7485 ft | 180 kts | 307° |
| 2026-05-05 12:20 | 18.25971 | 42.63147 | 8085 ft | 188 kts | 314° |
| 2026-05-05 12:20 | 18.27127 | 42.62403 | 8251 ft | 209 kts | 344° |
| 2026-05-05 12:21 | 18.28640 | 42.62107 | 8323 ft | 231 kts | 352° |
| 2026-05-05 12:21 | 18.30322 | 42.61894 | 8452 ft | 256 kts | 353° |
| 2026-05-05 12:21 | 18.32182 | 42.61744 | 8716 ft | 280 kts | 358° |
| 2026-05-05 12:21 | 18.34182 | 42.61754 | 9201 ft | 293 kts | 0° |
| 2026-05-05 12:22 | 18.36236 | 42.61822 | 9909 ft | 297 kts | 2° |
| 2026-05-05 12:22 | 18.38327 | 42.61912 | 10428 ft | 309 kts | 2° |
| 2026-05-05 12:22 | 18.40557 | 42.62009 | 10641 ft | 331 kts | 2° |
| 2026-05-05 12:22 | 18.42894 | 42.62103 | 11133 ft | 340 kts | 2° |
| 2026-05-05 12:23 | 18.45269 | 42.62191 | 11772 ft | 344 kts | 2° |
| 2026-05-05 12:23 | 18.47671 | 42.62275 | 12466 ft | 347 kts | 2° |
| 2026-05-05 12:23 | 18.50088 | 42.62354 | 13167 ft | 349 kts | 2° |
| 2026-05-05 12:23 | 18.52530 | 42.62430 | 13858 ft | 352 kts | 2° |
| 2026-05-05 12:24 | 18.54990 | 42.62509 | 14451 ft | 355 kts | 2° |
| 2026-05-05 12:24 | 18.57440 | 42.62588 | 15018 ft | 359 kts | 2° |
| 2026-05-05 12:24 | 18.59950 | 42.62669 | 15586 ft | 363 kts | 2° |
| 2026-05-05 12:24 | 18.62521 | 42.62754 | 16156 ft | 366 kts | 2° |
| 2026-05-05 12:25 | 18.65050 | 42.62837 | 16714 ft | 370 kts | 2° |
| 2026-05-05 12:25 | 18.67637 | 42.62923 | 17277 ft | 374 kts | 2° |
| 2026-05-05 12:25 | 18.70255 | 42.63010 | 17830 ft | 378 kts | 2° |
| 2026-05-05 12:25 | 18.72895 | 42.63096 | 18383 ft | 382 kts | 1° |
| 2026-05-05 12:26 | 18.75558 | 42.63184 | 18858 ft | 385 kts | 1° |
| 2026-05-05 12:26 | 18.78254 | 42.63275 | 19325 ft | 389 kts | 1° |
| 2026-05-05 12:26 | 18.80976 | 42.63365 | 19829 ft | 392 kts | 1° |
| 2026-05-05 12:26 | 18.83712 | 42.63455 | 20333 ft | 395 kts | 1° |
| 2026-05-05 12:27 | 18.86468 | 42.63547 | 20832 ft | 398 kts | 1° |
| 2026-05-05 12:27 | 18.89255 | 42.63638 | 21327 ft | 401 kts | 1° |
| 2026-05-05 12:27 | 18.92052 | 42.63732 | 21825 ft | 404 kts | 1° |
| 2026-05-05 12:27 | 18.94877 | 42.63826 | 22316 ft | 407 kts | 0° |
| 2026-05-05 12:28 | 18.97727 | 42.63919 | 22758 ft | 412 kts | 0° |
| 2026-05-05 12:28 | 19.00604 | 42.64014 | 23229 ft | 415 kts | 0° |
| 2026-05-05 12:28 | 19.03503 | 42.64110 | 23677 ft | 419 kts | 0° |
| 2026-05-05 12:28 | 19.06429 | 42.64207 | 24053 ft | 422 kts | 0° |
| 2026-05-05 12:29 | 19.09373 | 42.64282 | 24441 ft | 424 kts | 359° |
| 2026-05-05 12:29 | 19.12333 | 42.64274 | 24824 ft | 426 kts | 357° |
| 2026-05-05 12:29 | 19.15310 | 42.64204 | 25191 ft | 429 kts | 356° |
| 2026-05-05 12:29 | 19.18305 | 42.64108 | 25556 ft | 431 kts | 356° |
| 2026-05-05 12:30 | 19.21313 | 42.64009 | 25922 ft | 434 kts | 356° |
| 2026-05-05 12:30 | 19.24340 | 42.63925 | 26282 ft | 436 kts | 356° |
| 2026-05-05 12:30 | 19.27384 | 42.63854 | 26624 ft | 439 kts | 356° |
| 2026-05-05 12:30 | 19.30440 | 42.63796 | 26957 ft | 441 kts | 356° |
| 2026-05-05 12:31 | 19.33518 | 42.63744 | 27287 ft | 443 kts | 356° |
| 2026-05-05 12:31 | 19.36610 | 42.63693 | 27612 ft | 445 kts | 356° |
| 2026-05-05 12:31 | 19.39715 | 42.63638 | 27931 ft | 447 kts | 356° |
| 2026-05-05 12:31 | 19.42793 | 42.63582 | 28242 ft | 450 kts | 358° |
| 2026-05-05 12:32 | 19.45928 | 42.63832 | 28543 ft | 455 kts | 7° |
| 2026-05-05 12:32 | 19.49016 | 42.64638 | 28832 ft | 460 kts | 17° |
| 2026-05-05 12:32 | 19.51990 | 42.65945 | 29127 ft | 464 kts | 22° |
| 2026-05-05 12:32 | 19.54949 | 42.67340 | 29400 ft | 466 kts | 22° |
| 2026-05-05 12:33 | 19.57921 | 42.68736 | 29676 ft | 469 kts | 22° |
| 2026-05-05 12:33 | 19.60914 | 42.70135 | 29954 ft | 471 kts | 22° |
| 2026-05-05 12:33 | 19.63922 | 42.71536 | 30191 ft | 473 kts | 21° |
| 2026-05-05 12:33 | 19.66941 | 42.72940 | 30424 ft | 475 kts | 22° |
| 2026-05-05 12:34 | 19.69978 | 42.74356 | 30636 ft | 478 kts | 21° |
| 2026-05-05 12:34 | 19.73028 | 42.75780 | 30844 ft | 480 kts | 22° |
| 2026-05-05 12:34 | 19.76092 | 42.77214 | 31066 ft | 482 kts | 22° |
| 2026-05-05 12:34 | 19.79160 | 42.78655 | 31287 ft | 483 kts | 22° |
| 2026-05-05 12:35 | 19.82241 | 42.80102 | 31496 ft | 485 kts | 22° |
| 2026-05-05 12:35 | 19.85323 | 42.81548 | 31803 ft | 484 kts | 22° |
| 2026-05-05 12:35 | 19.88389 | 42.82988 | 32124 ft | 483 kts | 22° |
| 2026-05-05 12:35 | 19.91466 | 42.84434 | 32418 ft | 483 kts | 21° |
| 2026-05-05 12:36 | 19.94533 | 42.85876 | 32718 ft | 482 kts | 21° |
| 2026-05-05 12:36 | 19.97600 | 42.87316 | 33036 ft | 482 kts | 21° |
| 2026-05-05 12:36 | 19.99627 | 42.88268 | 33244 ft | 481 kts | 21° |
| 2026-05-05 12:36 | 20.03718 | 42.90192 | 33680 ft | 480 kts | 21° |
| 2026-05-05 12:37 | 20.05737 | 42.91139 | 33890 ft | 480 kts | 21° |
| 2026-05-05 12:37 | 20.08796 | 42.92561 | 34169 ft | 479 kts | 21° |
| 2026-05-05 12:37 | 20.11849 | 42.93972 | 34437 ft | 478 kts | 21° |
| 2026-05-05 12:37 | 20.14901 | 42.95380 | 34679 ft | 478 kts | 21° |
| 2026-05-05 12:38 | 20.17952 | 42.96788 | 34911 ft | 478 kts | 21° |
| 2026-05-05 12:38 | 20.20997 | 42.98200 | 35159 ft | 478 kts | 22° |
| 2026-05-05 12:38 | 20.23926 | 42.99897 | 35385 ft | 480 kts | 32° |
| 2026-05-05 12:38 | 20.26601 | 43.02025 | 35617 ft | 481 kts | 37° |
| 2026-05-05 12:39 | 20.29199 | 43.04246 | 35845 ft | 480 kts | 37° |
| 2026-05-05 12:39 | 20.31812 | 43.06480 | 36074 ft | 480 kts | 37° |
| 2026-05-05 12:39 | 20.34416 | 43.08704 | 36269 ft | 480 kts | 37° |
| 2026-05-05 12:39 | 20.37023 | 43.10928 | 36485 ft | 480 kts | 37° |
| 2026-05-05 12:40 | 20.39630 | 43.13151 | 36684 ft | 480 kts | 37° |
| 2026-05-05 12:40 | 20.42231 | 43.15371 | 36867 ft | 480 kts | 37° |
| 2026-05-05 12:40 | 20.47417 | 43.19804 | 36907 ft | 476 kts | 37° |
| 2026-05-05 12:41 | 20.52586 | 43.24225 | 36907 ft | 476 kts | 37° |
| 2026-05-05 12:41 | 20.57751 | 43.28636 | 36898 ft | 476 kts | 37° |
| 2026-05-05 12:42 | 20.62917 | 43.33062 | 36884 ft | 476 kts | 37° |
| 2026-05-05 12:42 | 20.68080 | 43.37496 | 36888 ft | 476 kts | 37° |
| 2026-05-05 12:43 | 20.73245 | 43.41929 | 36877 ft | 477 kts | 37° |
| 2026-05-05 12:43 | 20.78386 | 43.46343 | 36862 ft | 477 kts | 37° |
| 2026-05-05 12:44 | 20.83558 | 43.50795 | 36868 ft | 477 kts | 37° |
| 2026-05-05 12:44 | 20.88731 | 43.55248 | 36862 ft | 477 kts | 37° |
| 2026-05-05 12:45 | 20.93902 | 43.59703 | 36849 ft | 477 kts | 37° |
| 2026-05-05 12:45 | 20.99073 | 43.64163 | 36851 ft | 477 kts | 37° |
| 2026-05-05 12:46 | 21.04245 | 43.68631 | 36859 ft | 477 kts | 37° |
| 2026-05-05 12:46 | 21.09405 | 43.73082 | 36858 ft | 477 kts | 37° |
| 2026-05-05 12:47 | 21.14580 | 43.77558 | 36848 ft | 477 kts | 37° |
| 2026-05-05 12:47 | 21.19813 | 43.81922 | 36841 ft | 477 kts | 33° |
| 2026-05-05 12:48 | 21.25298 | 43.85910 | 36844 ft | 476 kts | 31° |
| 2026-05-05 12:48 | 21.30848 | 43.89772 | 36845 ft | 476 kts | 31° |
| 2026-05-05 12:49 | 21.36349 | 43.93712 | 36837 ft | 477 kts | 32° |
| 2026-05-05 12:49 | 21.41823 | 43.97737 | 36832 ft | 477 kts | 32° |
| 2026-05-05 12:50 | 21.47301 | 44.01772 | 36840 ft | 478 kts | 32° |
| 2026-05-05 12:50 | 21.52806 | 44.05797 | 36824 ft | 478 kts | 32° |
| 2026-05-05 12:51 | 21.58307 | 44.09826 | 36819 ft | 479 kts | 32° |
| 2026-05-05 12:51 | 21.63810 | 44.13860 | 36822 ft | 479 kts | 32° |
| 2026-05-05 12:52 | 21.69297 | 44.17883 | 36818 ft | 480 kts | 32° |
| 2026-05-05 12:52 | 21.74855 | 44.21961 | 36819 ft | 481 kts | 32° |
| 2026-05-05 12:53 | 21.80375 | 44.26021 | 36811 ft | 481 kts | 32° |
| 2026-05-05 12:53 | 21.85892 | 44.30089 | 36819 ft | 481 kts | 32° |
| 2026-05-05 12:54 | 21.94150 | 44.36181 | 36799 ft | 482 kts | 32° |
| 2026-05-05 12:55 | 21.99686 | 44.40260 | 36794 ft | 483 kts | 32° |
| 2026-05-05 12:55 | 22.05232 | 44.44350 | 36799 ft | 483 kts | 31° |
| 2026-05-05 12:56 | 22.10779 | 44.48441 | 36797 ft | 484 kts | 31° |
| 2026-05-05 12:56 | 22.16335 | 44.52545 | 36795 ft | 484 kts | 32° |
| 2026-05-05 12:57 | 22.21882 | 44.56669 | 36807 ft | 484 kts | 32° |
| 2026-05-05 12:57 | 22.27439 | 44.60795 | 36801 ft | 485 kts | 31° |
| 2026-05-05 12:58 | 22.33007 | 44.64926 | 36801 ft | 485 kts | 31° |
| 2026-05-05 12:58 | 22.38583 | 44.69070 | 36807 ft | 485 kts | 31° |
| 2026-05-05 12:59 | 22.44151 | 44.73203 | 36811 ft | 486 kts | 31° |
| 2026-05-05 12:59 | 22.49683 | 44.77317 | 36799 ft | 486 kts | 31° |
| 2026-05-05 13:00 | 22.58044 | 44.83548 | 36810 ft | 487 kts | 31° |
| 2026-05-05 13:01 | 22.69257 | 44.91914 | 36795 ft | 489 kts | 31° |
| 2026-05-05 13:01 | 22.74814 | 44.96079 | 36805 ft | 489 kts | 31° |
| 2026-05-05 13:02 | 22.80417 | 45.00279 | 36803 ft | 489 kts | 31° |
| 2026-05-05 13:02 | 22.86028 | 45.04479 | 36606 ft | 491 kts | 31° |
| 2026-05-05 13:03 | 22.88838 | 45.06585 | 36351 ft | 491 kts | 31° |
| 2026-05-05 13:03 | 22.91647 | 45.08691 | 36109 ft | 491 kts | 31° |
| 2026-05-05 13:03 | 22.94455 | 45.10800 | 35873 ft | 491 kts | 31° |
| 2026-05-05 13:03 | 22.97270 | 45.12918 | 35624 ft | 490 kts | 31° |
| 2026-05-05 13:04 | 23.00067 | 45.15024 | 35385 ft | 489 kts | 31° |
| 2026-05-05 13:04 | 23.02858 | 45.17123 | 35163 ft | 487 kts | 31° |
| 2026-05-05 13:04 | 23.05640 | 45.19216 | 34933 ft | 485 kts | 31° |
| 2026-05-05 13:04 | 23.08412 | 45.21299 | 34714 ft | 484 kts | 31° |
| 2026-05-05 13:05 | 23.11178 | 45.23379 | 34486 ft | 483 kts | 31° |
| 2026-05-05 13:05 | 23.13937 | 45.25456 | 34258 ft | 481 kts | 31° |
| 2026-05-05 13:05 | 23.16684 | 45.27525 | 34032 ft | 480 kts | 31° |
| 2026-05-05 13:05 | 23.19385 | 45.29561 | 33808 ft | 478 kts | 31° |
| 2026-05-05 13:06 | 23.22119 | 45.31625 | 33552 ft | 476 kts | 31° |
| 2026-05-05 13:06 | 23.24831 | 45.33675 | 33295 ft | 474 kts | 31° |
| 2026-05-05 13:06 | 23.27528 | 45.35718 | 33040 ft | 471 kts | 31° |
| 2026-05-05 13:06 | 23.30200 | 45.37744 | 32693 ft | 467 kts | 31° |
| 2026-05-05 13:07 | 23.32857 | 45.39757 | 32183 ft | 464 kts | 31° |
| 2026-05-05 13:07 | 23.35499 | 45.41757 | 31685 ft | 462 kts | 31° |
| 2026-05-05 13:07 | 23.38132 | 45.43748 | 31199 ft | 459 kts | 31° |
| 2026-05-05 13:07 | 23.40747 | 45.45728 | 30711 ft | 457 kts | 31° |
| 2026-05-05 13:08 | 23.43347 | 45.47701 | 30234 ft | 454 kts | 31° |
| 2026-05-05 13:08 | 23.45934 | 45.49668 | 29741 ft | 452 kts | 31° |
| 2026-05-05 13:08 | 23.48503 | 45.51621 | 29265 ft | 448 kts | 31° |
| 2026-05-05 13:08 | 23.51047 | 45.53557 | 28820 ft | 443 kts | 31° |
| 2026-05-05 13:09 | 23.53567 | 45.55473 | 28375 ft | 439 kts | 31° |
| 2026-05-05 13:09 | 23.56064 | 45.57371 | 27943 ft | 435 kts | 32° |
| 2026-05-05 13:09 | 23.58538 | 45.59254 | 27503 ft | 431 kts | 32° |
| 2026-05-05 13:09 | 23.60953 | 45.61093 | 27072 ft | 428 kts | 32° |
| 2026-05-05 13:10 | 23.63372 | 45.62966 | 26626 ft | 425 kts | 36° |
| 2026-05-05 13:10 | 23.65587 | 45.65115 | 26172 ft | 424 kts | 41° |
| 2026-05-05 13:10 | 23.67732 | 45.67306 | 25720 ft | 422 kts | 41° |
| 2026-05-05 13:10 | 23.69871 | 45.69488 | 25260 ft | 420 kts | 41° |
| 2026-05-05 13:11 | 23.72001 | 45.71658 | 24776 ft | 418 kts | 41° |
| 2026-05-05 13:11 | 23.74126 | 45.73824 | 24290 ft | 417 kts | 41° |
| 2026-05-05 13:11 | 23.76239 | 45.75982 | 23801 ft | 416 kts | 41° |
| 2026-05-05 13:11 | 23.78349 | 45.78135 | 23317 ft | 414 kts | 41° |
| 2026-05-05 13:12 | 23.80442 | 45.80271 | 22802 ft | 411 kts | 41° |
| 2026-05-05 13:12 | 23.82517 | 45.82393 | 22371 ft | 406 kts | 42° |
| 2026-05-05 13:12 | 23.84580 | 45.84503 | 21899 ft | 404 kts | 42° |
| 2026-05-05 13:12 | 23.86624 | 45.86595 | 21390 ft | 402 kts | 42° |
| 2026-05-05 13:13 | 23.88660 | 45.88680 | 20917 ft | 400 kts | 42° |
| 2026-05-05 13:13 | 23.90674 | 45.90742 | 20480 ft | 396 kts | 42° |
| 2026-05-05 13:13 | 23.92679 | 45.92796 | 20092 ft | 392 kts | 42° |
| 2026-05-05 13:13 | 23.94670 | 45.94836 | 19621 ft | 390 kts | 42° |
| 2026-05-05 13:14 | 23.96643 | 45.96855 | 19123 ft | 390 kts | 43° |
| 2026-05-05 13:14 | 23.98611 | 45.98868 | 18817 ft | 384 kts | 42° |
| 2026-05-05 13:14 | 24.00554 | 46.00860 | 18381 ft | 383 kts | 43° |
| 2026-05-05 13:14 | 24.02591 | 46.02719 | 17947 ft | 380 kts | 33° |
| 2026-05-05 13:15 | 24.04872 | 46.04140 | 17477 ft | 377 kts | 27° |
| 2026-05-05 13:15 | 24.07180 | 46.05486 | 17030 ft | 375 kts | 27° |
| 2026-05-05 13:15 | 24.09451 | 46.06808 | 16597 ft | 373 kts | 27° |
| 2026-05-05 13:15 | 24.11755 | 46.08153 | 16093 ft | 367 kts | 27° |
| 2026-05-05 13:16 | 24.13975 | 46.09451 | 15613 ft | 355 kts | 26° |
| 2026-05-05 13:16 | 24.16114 | 46.10705 | 15236 ft | 342 kts | 26° |
| 2026-05-05 13:16 | 24.18172 | 46.11912 | 14864 ft | 330 kts | 27° |
| 2026-05-05 13:16 | 24.20161 | 46.13081 | 14505 ft | 319 kts | 26° |
| 2026-05-05 13:17 | 24.22090 | 46.14212 | 14149 ft | 310 kts | 26° |
| 2026-05-05 13:17 | 24.23982 | 46.15321 | 13803 ft | 308 kts | 26° |
| 2026-05-05 13:17 | 24.25882 | 46.16436 | 13445 ft | 311 kts | 26° |
| 2026-05-05 13:17 | 24.27793 | 46.17559 | 13078 ft | 312 kts | 26° |
| 2026-05-05 13:18 | 24.29707 | 46.18683 | 12759 ft | 310 kts | 26° |
| 2026-05-05 13:18 | 24.31596 | 46.19791 | 12515 ft | 307 kts | 26° |
| 2026-05-05 13:18 | 24.33476 | 46.20892 | 12173 ft | 307 kts | 26° |
| 2026-05-05 13:18 | 24.35357 | 46.21993 | 11881 ft | 308 kts | 26° |
| 2026-05-05 13:19 | 24.37293 | 46.23124 | 11772 ft | 319 kts | 26° |
| 2026-05-05 13:19 | 24.38594 | 46.23885 | 11679 ft | 321 kts | 27° |
| 2026-05-05 13:19 | 24.40560 | 46.25038 | 11530 ft | 320 kts | 27° |
| 2026-05-05 13:19 | 24.42519 | 46.26189 | 11374 ft | 319 kts | 27° |
| 2026-05-05 13:20 | 24.44484 | 46.27343 | 11224 ft | 320 kts | 27° |
| 2026-05-05 13:20 | 24.46444 | 46.28495 | 11074 ft | 319 kts | 27° |
| 2026-05-05 13:20 | 24.48398 | 46.29644 | 10927 ft | 319 kts | 27° |
| 2026-05-05 13:20 | 24.50353 | 46.30793 | 10777 ft | 319 kts | 27° |
| 2026-05-05 13:21 | 24.52312 | 46.31942 | 10628 ft | 318 kts | 27° |
| 2026-05-05 13:21 | 24.54260 | 46.33086 | 10478 ft | 317 kts | 27° |
| 2026-05-05 13:21 | 24.56209 | 46.34233 | 10329 ft | 318 kts | 27° |
| 2026-05-05 13:21 | 24.58153 | 46.35379 | 10179 ft | 317 kts | 27° |
| 2026-05-05 13:22 | 24.60088 | 46.36520 | 10030 ft | 316 kts | 27° |
| 2026-05-05 13:22 | 24.62024 | 46.37665 | 9881 ft | 316 kts | 27° |
| 2026-05-05 13:22 | 24.63960 | 46.38809 | 9734 ft | 316 kts | 27° |
| 2026-05-05 13:22 | 24.65888 | 46.39947 | 9581 ft | 313 kts | 27° |
| 2026-05-05 13:23 | 24.67827 | 46.40950 | 9427 ft | 312 kts | 17° |
| 2026-05-05 13:23 | 24.69934 | 46.41447 | 9282 ft | 309 kts | 2° |
| 2026-05-05 13:23 | 24.72071 | 46.41583 | 9139 ft | 306 kts | 1° |
| 2026-05-05 13:23 | 24.74204 | 46.41718 | 8999 ft | 308 kts | 2° |
| 2026-05-05 13:24 | 24.76342 | 46.41857 | 8851 ft | 308 kts | 1° |
| 2026-05-05 13:24 | 24.78473 | 46.41999 | 8712 ft | 306 kts | 1° |
| 2026-05-05 13:24 | 24.80596 | 46.42143 | 8569 ft | 305 kts | 2° |
| 2026-05-05 13:24 | 24.82716 | 46.42286 | 8424 ft | 305 kts | 2° |
| 2026-05-05 13:25 | 24.84835 | 46.42428 | 8290 ft | 305 kts | 1° |
| 2026-05-05 13:25 | 24.86956 | 46.42568 | 8139 ft | 305 kts | 1° |
| 2026-05-05 13:25 | 24.89065 | 46.42707 | 7998 ft | 302 kts | 2° |
| 2026-05-05 13:25 | 24.91160 | 46.42846 | 7855 ft | 301 kts | 1° |
| 2026-05-05 13:26 | 24.93242 | 46.42983 | 7714 ft | 299 kts | 1° |
| 2026-05-05 13:26 | 24.95324 | 46.43121 | 7576 ft | 299 kts | 1° |
| 2026-05-05 13:26 | 24.97399 | 46.43256 | 7423 ft | 299 kts | 1° |
| 2026-05-05 13:26 | 24.99470 | 46.43390 | 7302 ft | 297 kts | 1° |
| 2026-05-05 13:27 | 25.01529 | 46.43525 | 7154 ft | 296 kts | 1° |
| 2026-05-05 13:27 | 25.03579 | 46.43657 | 7015 ft | 295 kts | 0° |
| 2026-05-05 13:27 | 25.05632 | 46.43791 | 6877 ft | 294 kts | 0° |
| 2026-05-05 13:27 | 25.07672 | 46.43925 | 6735 ft | 293 kts | 1° |
| 2026-05-05 13:28 | 25.09701 | 46.43914 | 6594 ft | 290 kts | 349° |
| 2026-05-05 13:28 | 25.11630 | 46.43363 | 6453 ft | 284 kts | 335° |
| 2026-05-05 13:28 | 25.13363 | 46.42355 | 6311 ft | 280 kts | 327° |
| 2026-05-05 13:28 | 25.15049 | 46.41274 | 6157 ft | 279 kts | 327° |
| 2026-05-05 13:29 | 25.16722 | 46.40203 | 6020 ft | 278 kts | 328° |
| 2026-05-05 13:29 | 25.18476 | 46.39314 | 5870 ft | 280 kts | 345° |
| 2026-05-05 13:29 | 25.20416 | 46.39379 | 5734 ft | 284 kts | 16° |
| 2026-05-05 13:29 | 25.22092 | 46.40516 | 5579 ft | 289 kts | 45° |
| 2026-05-05 13:30 | 25.23206 | 46.42370 | 5415 ft | 289 kts | 58° |
| 2026-05-05 13:30 | 25.24187 | 46.44247 | 5278 ft | 275 kts | 59° |
| 2026-05-05 13:30 | 25.25110 | 46.46048 | 5142 ft | 263 kts | 63° |
| 2026-05-05 13:30 | 25.25471 | 46.47957 | 5032 ft | 251 kts | 98° |
| 2026-05-05 13:31 | 25.24805 | 46.49673 | 4962 ft | 243 kts | 136° |
| 2026-05-05 13:31 | 25.23460 | 46.50805 | 4973 ft | 244 kts | 152° |
| 2026-05-05 13:31 | 25.21999 | 46.51709 | 4975 ft | 244 kts | 153° |
| 2026-05-05 13:31 | 25.20522 | 46.52624 | 4978 ft | 243 kts | 152° |
| 2026-05-05 13:32 | 25.19052 | 46.53556 | 4980 ft | 244 kts | 153° |
| 2026-05-05 13:32 | 25.17575 | 46.54495 | 4983 ft | 244 kts | 152° |
| 2026-05-05 13:32 | 25.16098 | 46.55434 | 4985 ft | 245 kts | 152° |
| 2026-05-05 13:32 | 25.14623 | 46.56372 | 4988 ft | 243 kts | 152° |
| 2026-05-05 13:33 | 25.13179 | 46.57290 | 4989 ft | 239 kts | 153° |
| 2026-05-05 13:33 | 25.11748 | 46.58198 | 4983 ft | 235 kts | 153° |
| 2026-05-05 13:33 | 25.10331 | 46.59097 | 4801 ft | 234 kts | 153° |
| 2026-05-05 13:33 | 25.08929 | 46.59987 | 4546 ft | 231 kts | 153° |
| 2026-05-05 13:34 | 25.07541 | 46.60867 | 4263 ft | 230 kts | 152° |
| 2026-05-05 13:34 | 25.06159 | 46.61744 | 3981 ft | 229 kts | 153° |
| 2026-05-05 13:34 | 25.04791 | 46.62611 | 3699 ft | 222 kts | 153° |
| 2026-05-05 13:34 | 25.03475 | 46.63446 | 3447 ft | 213 kts | 152° |
| 2026-05-05 13:35 | 25.02225 | 46.64239 | 3200 ft | 202 kts | 152° |
| 2026-05-05 13:35 | 25.01070 | 46.64973 | 2967 ft | 179 kts | 154° |
| 2026-05-05 13:35 | 25.00058 | 46.65615 | 2767 ft | 159 kts | 155° |
| 2026-05-05 13:35 | 24.99135 | 46.66204 | 2600 ft | 147 kts | 156° |
| 2026-05-05 13:36 | 24.98264 | 46.66755 | 2373 ft | 142 kts | 154° |
| 2026-05-05 13:36 | 24.97413 | 46.67289 | 2166 ft | 139 kts | 154° |
| 2026-05-05 13:36 | 24.96583 | 46.67815 | 2036 ft | 129 kts | 153° |
| 2026-05-05 13:36 | 24.95906 | 46.68238 | 2031 ft | 89 kts | 151° |
| 2026-05-05 13:37 | 24.95568 | 46.68485 | 2031 ft | 36 kts | 129° |
| 2026-05-05 13:37 | 24.95484 | 46.68697 | 2029 ft | 28 kts | 86° |
| 2026-05-05 13:37 | 24.95519 | 46.68790 | 2036 ft | 0 kts | 64° |
| 2026-05-05 13:38 | 24.95516 | 46.68817 | 2031 ft | 11 kts | 112° |
| 2026-05-05 13:38 | 24.95407 | 46.68899 | 2037 ft | 26 kts | 151° |
| 2026-05-05 13:38 | 24.95243 | 46.68997 | 2037 ft | 27 kts | 150° |
| 2026-05-05 13:38 | 24.95083 | 46.69106 | 2033 ft | 27 kts | 149° |
| 2026-05-05 13:39 | 24.94919 | 46.69208 | 2033 ft | 27 kts | 151° |
| 2026-05-05 13:39 | 24.94756 | 46.69310 | 2033 ft | 27 kts | 150° |
| 2026-05-05 13:39 | 24.94591 | 46.69415 | 2033 ft | 27 kts | 149° |
| 2026-05-05 13:39 | 24.94527 | 46.69547 | 2039 ft | 18 kts | 59° |
| 2026-05-05 13:40 | 24.94587 | 46.69663 | 2035 ft | 17 kts | 60° |
| 2026-05-05 13:40 | 24.94643 | 46.69767 | 2032 ft | 15 kts | 59° |
| 2026-05-05 13:40 | 24.94719 | 46.69914 | 2035 ft | 29 kts | 61° |
| 2026-05-05 13:40 | 24.94835 | 46.70138 | 2031 ft | 33 kts | 60° |
| 2026-05-05 13:41 | 24.94952 | 46.70364 | 2034 ft | 35 kts | 60° |
| 2026-05-05 13:41 | 24.95075 | 46.70585 | 2033 ft | 34 kts | 59° |
| 2026-05-05 13:41 | 24.95188 | 46.70807 | 2039 ft | 31 kts | 61° |
| 2026-05-05 13:41 | 24.95285 | 46.70991 | 2033 ft | 24 kts | 58° |
| 2026-05-05 13:42 | 24.95400 | 46.70987 | 2033 ft | 19 kts | 330° |
| 2026-05-05 13:42 | 24.95533 | 46.70902 | 2031 ft | 23 kts | 331° |
| 2026-05-05 13:42 | 24.95668 | 46.70817 | 2035 ft | 21 kts | 329° |
| 2026-05-05 13:42 | 24.95793 | 46.70737 | 2032 ft | 21 kts | 329° |
| 2026-05-05 13:43 | 24.95911 | 46.70661 | 2035 ft | 19 kts | 330° |
| 2026-05-05 13:43 | 24.96013 | 46.70593 | 2035 ft | 15 kts | 330° |
| 2026-05-05 13:43 | 24.96045 | 46.70511 | 2033 ft | 13 kts | 231° |
| 2026-05-05 13:43 | 24.95971 | 46.70469 | 2030 ft | 7 kts | 203° |
| 2026-05-05 13:44 | 24.95955 | 46.70462 | 2030 ft | 2 kts | 204° |